Tyrone, Missouri
Current Conditions -  °F | °C
As of 5:53 PM on Saturday 25 Oct 2014 (Local Time) from KUNO Reporting Station
Clear Clear  
Wind Chill: 79°   Ceiling: Unl
Heat Index: 80°   Visibility: 10mi
Dew Point: 59°   Wind: 0mph
Humidity: 50%   Direction: NA
Pressure: 30.04"   Gusts: NA
Location:  37.3091°N, 91.9516°W
Report Text: KUNO 252253Z AUTO 00000KT 10SM CLR 26/15 A3004 RMK AO2 SLP163 T02610150
Loading
Personal Weather Stations






























Interactive Weather Map
Tropical Storm Tracking
New forecast layout! Learn more

10-Day Weather Forecast

Advertisements
Track Severe Weather on mobile